createdAt,value
2017-11-20T00:01:03.064Z,77.79
2017-11-20T00:02:26.378Z,77.81
2017-11-20T00:03:53.558Z,77.93
2017-11-20T00:05:24.869Z,77.86
2017-11-20T00:06:47.974Z,78.82
2017-11-20T00:08:15.227Z,78.35
2017-11-20T00:09:46.555Z,78.45
2017-11-20T00:11:13.654Z,78.79
2017-11-20T00:12:40.984Z,78.63
2017-11-20T00:14:08.159Z,79.24
2017-11-20T00:15:35.370Z,79.40
2017-11-20T00:17:02.690Z,79.26
2017-11-20T00:18:25.868Z,79.31
2017-11-20T00:19:53.176Z,79.69
2017-11-20T00:21:20.373Z,79.85
2017-11-20T00:22:47.625Z,80.01
2017-11-20T00:24:14.985Z,80.30
2017-11-20T00:25:42.175Z,80.29
2017-11-20T00:27:09.403Z,80.63
2017-11-20T00:28:40.684Z,80.84
2017-11-20T00:30:03.973Z,80.90
2017-11-20T00:31:31.206Z,80.65
2017-11-20T00:32:58.450Z,80.63
2017-11-20T00:34:25.662Z,80.33
2017-11-20T00:35:52.821Z,80.55
2017-11-20T00:37:20.190Z,80.63
2017-11-20T00:38:47.352Z,80.49
2017-11-20T00:40:14.655Z,80.60
2017-11-20T00:41:41.971Z,80.60
2017-11-20T00:43:13.315Z,80.95
2017-11-20T00:44:36.381Z,80.63
2017-11-20T00:46:03.570Z,80.45
2017-11-20T00:47:30.799Z,79.82
2017-11-20T00:48:57.919Z,80.03
2017-11-20T00:50:25.232Z,79.75
2017-11-20T00:51:52.349Z,79.59
2017-11-20T00:53:19.489Z,79.89
2017-11-20T00:54:46.750Z,80.03
2017-11-20T00:56:14.047Z,80.18
2017-11-20T00:57:45.318Z,80.24
2017-11-20T00:59:12.306Z,80.85
2017-11-20T01:00:39.539Z,81.22
2017-11-20T01:02:06.608Z,81.52
2017-11-20T01:03:29.984Z,81.54
2017-11-20T01:04:57.246Z,81.99
2017-11-20T01:06:28.337Z,82.30
2017-11-20T01:07:55.539Z,82.27
2017-11-20T01:09:18.580Z,82.57
2017-11-20T01:10:45.886Z,82.63
2017-11-20T01:12:13.301Z,82.36
2017-11-20T01:13:40.731Z,82.31
2017-11-20T01:15:11.963Z,82.50
2017-11-20T01:16:35.210Z,82.99
2017-11-20T01:18:02.503Z,82.79
2017-11-20T01:19:33.725Z,83.09
2017-11-20T01:20:57.011Z,83.10
2017-11-20T01:22:24.308Z,83.11
2017-11-20T01:23:51.299Z,82.97
2017-11-20T01:25:18.628Z,83.36
2017-11-20T01:26:45.694Z,83.42
2017-11-20T01:28:12.936Z,83.82
2017-11-20T01:29:40.275Z,83.93
2017-11-20T01:31:07.583Z,84.16
2017-11-20T01:32:34.793Z,84.02
2017-11-20T01:34:02.039Z,83.93
2017-11-20T01:35:29.125Z,83.94
2017-11-20T01:36:56.403Z,83.72
2017-11-20T01:38:23.631Z,83.73
2017-11-20T01:39:54.913Z,84.11
2017-11-20T01:41:18.214Z,84.15
2017-11-20T01:42:45.425Z,83.70
2017-11-20T01:44:16.469Z,83.46
2017-11-20T01:45:43.713Z,83.51
2017-11-20T01:47:07.028Z,82.98
2017-11-20T01:48:34.354Z,82.53
2017-11-20T01:50:05.313Z,81.98
2017-11-20T01:51:32.805Z,81.80
2017-11-20T01:52:55.985Z,81.72
2017-11-20T01:54:23.249Z,81.73
2017-11-20T01:55:50.449Z,81.75
2017-11-20T01:57:21.686Z,81.65
2017-11-20T01:58:45.026Z,81.50
2017-11-20T02:00:16.232Z,81.70
2017-11-20T02:01:39.395Z,81.78
2017-11-20T02:03:10.646Z,81.94
2017-11-20T02:04:37.645Z,82.14
2017-11-20T02:06:00.947Z,82.53
2017-11-20T02:07:28.086Z,82.72
2017-11-20T02:08:55.326Z,82.54
2017-11-20T02:10:26.406Z,82.52
2017-11-20T02:11:49.811Z,82.47
2017-11-20T02:13:20.956Z,82.21
2017-11-20T02:14:48.133Z,82.70
2017-11-20T02:16:11.268Z,82.38
2017-11-20T02:17:38.618Z,82.34
2017-11-20T02:19:10.146Z,82.25
2017-11-20T02:20:37.388Z,82.16
2017-11-20T02:22:04.631Z,81.92
2017-11-20T02:23:31.909Z,82.13
2017-11-20T02:24:55.136Z,82.17
2017-11-20T02:26:22.346Z,81.83
2017-11-20T02:27:49.464Z,81.62
2017-11-20T02:29:20.758Z,81.76
2017-11-20T02:30:43.943Z,81.57
2017-11-20T02:32:15.283Z,81.69
2017-11-20T02:33:38.613Z,81.59
2017-11-20T02:35:05.763Z,81.91
2017-11-20T02:36:32.954Z,81.55
2017-11-20T02:38:04.207Z,81.81
2017-11-20T02:39:31.286Z,81.89
2017-11-20T02:40:58.484Z,82.22
2017-11-20T02:42:21.701Z,81.80
2017-11-20T02:43:48.962Z,81.83
2017-11-20T02:45:20.280Z,81.93
2017-11-20T02:46:43.449Z,81.37
2017-11-20T02:48:10.724Z,81.61
2017-11-20T02:49:37.997Z,81.42
2017-11-20T02:51:05.467Z,81.79
2017-11-20T02:52:32.607Z,81.82
2017-11-20T02:53:59.685Z,82.28
2017-11-20T02:55:26.979Z,82.32
2017-11-20T02:56:54.271Z,82.53
2017-11-20T02:58:21.413Z,82.13
2017-11-20T02:59:52.545Z,81.73
2017-11-20T03:01:19.886Z,81.88
2017-11-20T03:02:42.948Z,82.21
2017-11-20T03:04:14.317Z,82.28
2017-11-20T03:05:37.658Z,82.19
2017-11-20T03:07:04.921Z,81.69
2017-11-20T03:08:32.183Z,82.17
2017-11-20T03:10:03.474Z,82.35
2017-11-20T03:11:26.678Z,82.33
2017-11-20T03:12:54.019Z,82.87
2017-11-20T03:14:24.744Z,82.86
2017-11-20T03:15:51.986Z,82.80
2017-11-20T03:17:19.318Z,83.42
2017-11-20T03:18:42.397Z,83.87
2017-11-20T03:20:09.644Z,84.11
2017-11-20T03:21:40.833Z,84.64
2017-11-20T03:23:04.188Z,85.20
2017-11-20T03:24:35.255Z,86.00
2017-11-20T03:25:58.488Z,85.85
2017-11-20T03:27:25.664Z,85.83
2017-11-20T03:28:52.798Z,85.92
2017-11-20T03:30:20.181Z,85.96
2017-11-20T03:31:51.333Z,85.91
2017-11-20T03:33:18.658Z,85.94
2017-11-20T03:34:46.033Z,85.83
2017-11-20T03:36:13.095Z,85.63
2017-11-20T03:37:40.389Z,85.82
2017-11-20T03:39:03.639Z,86.50
2017-11-20T03:40:30.712Z,86.82
2017-11-20T03:41:57.876Z,86.87
2017-11-20T03:43:25.053Z,87.75
2017-11-20T03:44:52.211Z,88.13
2017-11-20T03:46:19.479Z,88.26
2017-11-20T03:47:46.559Z,88.40
2017-11-20T03:49:13.867Z,88.64
2017-11-20T03:50:41.158Z,88.76
2017-11-20T03:52:08.360Z,88.99
2017-11-20T03:53:39.608Z,89.22
2017-11-20T03:55:02.880Z,88.85
2017-11-20T03:56:30.108Z,89.00
2017-11-20T03:57:57.308Z,89.35
2017-11-20T03:59:28.321Z,89.60
2017-11-20T04:00:51.396Z,89.61
2017-11-20T04:02:22.453Z,89.53
2017-11-20T04:03:49.885Z,89.23
2017-11-20T04:05:13.162Z,89.64
2017-11-20T04:06:40.291Z,89.71
2017-11-20T04:08:11.666Z,89.75
2017-11-20T04:09:34.803Z,90.20
2017-11-20T04:11:06.015Z,90.22
2017-11-20T04:12:33.015Z,89.97
2017-11-20T04:13:56.117Z,90.23
2017-11-20T04:15:23.389Z,90.17
2017-11-20T04:16:50.647Z,90.00
2017-11-20T04:18:17.838Z,89.60
2017-11-20T04:19:45.078Z,89.47
2017-11-20T04:21:12.457Z,89.71
2017-11-20T04:22:39.774Z,89.79
2017-11-20T04:24:10.988Z,89.51
2017-11-20T04:25:38.378Z,89.86
2017-11-20T04:27:01.615Z,90.63
2017-11-20T04:28:28.914Z,90.93
2017-11-20T04:29:56.144Z,90.88
2017-11-20T04:31:27.319Z,91.27
2017-11-20T04:32:50.321Z,91.11
2017-11-20T04:34:17.687Z,91.14
2017-11-20T04:35:48.852Z,90.98
2017-11-20T04:37:12.224Z,91.08
2017-11-20T04:38:39.446Z,90.37
2017-11-20T04:40:06.955Z,90.42
2017-11-20T04:41:38.275Z,90.61
2017-11-20T04:43:05.353Z,90.49
2017-11-20T04:44:28.499Z,90.69
2017-11-20T04:45:55.750Z,90.48
2017-11-20T04:47:22.931Z,90.47
2017-11-20T04:48:54.145Z,90.83
2017-11-20T04:50:17.321Z,91.06
2017-11-20T04:51:44.528Z,91.36
2017-11-20T04:53:11.607Z,91.85
2017-11-20T04:54:38.833Z,92.14
2017-11-20T04:56:05.957Z,92.33
2017-11-20T04:57:37.271Z,92.41
2017-11-20T04:59:00.431Z,92.56
2017-11-20T05:00:31.512Z,92.60
2017-11-20T05:01:58.693Z,92.44
2017-11-20T05:03:21.809Z,92.43
2017-11-20T05:04:53.144Z,92.66
2017-11-20T05:06:20.359Z,92.36
2017-11-20T05:07:43.584Z,92.64
2017-11-20T05:09:10.725Z,92.78
2017-11-20T05:10:41.884Z,92.95
2017-11-20T05:12:09.183Z,92.70
2017-11-20T05:13:32.331Z,92.27
2017-11-20T05:15:03.664Z,92.10
2017-11-20T05:16:26.912Z,91.64
2017-11-20T05:17:53.943Z,91.97
2017-11-20T05:19:21.130Z,92.19
2017-11-20T05:20:48.449Z,92.05
2017-11-20T05:22:19.625Z,91.83
2017-11-20T05:23:46.831Z,92.31
2017-11-20T05:25:14.101Z,92.45
2017-11-20T05:26:41.168Z,92.70
2017-11-20T05:28:04.469Z,92.79
2017-11-20T05:29:35.498Z,92.80
2017-11-20T05:30:58.795Z,92.89
2017-11-20T05:32:26.051Z,92.77
2017-11-20T05:33:53.093Z,92.50
2017-11-20T05:35:20.355Z,92.69
2017-11-20T05:36:47.500Z,92.83
2017-11-20T05:38:18.723Z,92.96
2017-11-20T05:39:45.923Z,92.85
2017-11-20T05:41:09.193Z,92.46
2017-11-20T05:42:40.334Z,92.50
2017-11-20T05:44:07.561Z,92.63
2017-11-20T05:45:30.753Z,92.91
2017-11-20T05:46:57.979Z,92.44
2017-11-20T05:48:29.184Z,92.40
2017-11-20T05:49:52.567Z,92.53
2017-11-20T05:51:19.665Z,92.10
2017-11-20T05:52:50.745Z,91.84
2017-11-20T05:54:13.934Z,91.88
2017-11-20T05:55:41.273Z,91.44
2017-11-20T05:57:08.516Z,90.98
2017-11-20T05:58:39.762Z,91.10
2017-11-20T06:00:03.088Z,90.55
2017-11-20T06:01:34.161Z,90.98
2017-11-20T06:02:57.503Z,90.91
2017-11-20T06:04:28.722Z,90.75
2017-11-20T06:05:55.662Z,91.27
2017-11-20T06:07:23.074Z,91.49
2017-11-20T06:08:46.243Z,91.01
2017-11-20T06:10:21.729Z,91.20
2017-11-20T06:11:44.661Z,91.35
2017-11-20T06:13:11.853Z,91.11
2017-11-20T06:14:34.938Z,90.88
2017-11-20T06:16:02.355Z,90.67
2017-11-20T06:17:33.632Z,90.14
2017-11-20T06:19:00.976Z,90.44
2017-11-20T06:20:24.117Z,90.74
2017-11-20T06:21:55.134Z,90.59
2017-11-20T06:23:18.396Z,90.22
2017-11-20T06:24:45.591Z,90.22
2017-11-20T06:26:12.819Z,89.81
2017-11-20T06:27:44.148Z,89.68
2017-11-20T06:29:07.383Z,89.86
2017-11-20T06:30:34.604Z,90.31
2017-11-20T06:32:01.927Z,90.62
2017-11-20T06:33:33.212Z,90.54
2017-11-20T06:34:56.387Z,90.96
2017-11-20T06:36:23.583Z,91.09
2017-11-20T06:37:50.672Z,90.93
2017-11-20T06:39:17.872Z,91.22
2017-11-20T06:40:45.105Z,91.39
2017-11-20T06:42:12.345Z,91.61
2017-11-20T06:43:39.611Z,91.67
2017-11-20T06:45:06.780Z,91.96
2017-11-20T06:46:34.270Z,92.25
2017-11-20T06:48:01.114Z,92.04
2017-11-20T06:49:32.459Z,91.93
2017-11-20T06:50:59.605Z,92.13
2017-11-20T06:52:22.688Z,92.50
2017-11-20T06:53:49.813Z,92.52
2017-11-20T06:55:21.039Z,92.46
2017-11-20T06:56:48.219Z,92.49
2017-11-20T06:58:11.587Z,92.60
2017-11-20T06:59:42.941Z,92.81
2017-11-20T07:01:06.164Z,92.50
2017-11-20T07:02:33.400Z,92.75
2017-11-20T07:04:04.330Z,92.53
2017-11-20T07:05:27.569Z,92.40
2017-11-20T07:06:54.774Z,92.39
2017-11-20T07:08:21.824Z,92.25
2017-11-20T07:09:49.119Z,92.06
2017-11-20T07:11:20.401Z,92.19
2017-11-20T07:12:43.518Z,92.15
2017-11-20T07:14:15.560Z,92.34
2017-11-20T07:15:41.777Z,92.02
2017-11-20T07:17:09.065Z,92.17
2017-11-20T07:18:32.258Z,91.89
2017-11-20T07:19:59.526Z,91.65
2017-11-20T07:21:26.412Z,91.72
2017-11-20T07:22:53.748Z,91.74
2017-11-20T07:24:20.958Z,92.08
2017-11-20T07:25:48.270Z,91.86
2017-11-20T07:27:15.301Z,92.17
2017-11-20T07:28:42.630Z,92.55
2017-11-20T07:30:09.875Z,92.29
2017-11-20T07:31:37.073Z,92.23
2017-11-20T07:33:04.255Z,91.86
2017-11-20T07:34:31.466Z,91.69
2017-11-20T07:35:58.469Z,91.28
2017-11-20T07:37:25.666Z,91.30
2017-11-20T07:38:52.887Z,91.13
2017-11-20T07:40:20.057Z,91.11
2017-11-20T07:41:47.401Z,91.37
2017-11-20T07:43:14.711Z,91.06
2017-11-20T07:44:45.949Z,91.00
2017-11-20T07:46:12.965Z,90.96
2017-11-20T07:47:36.327Z,90.63
2017-11-20T07:49:03.697Z,90.25
2017-11-20T07:50:34.706Z,90.32
2017-11-20T07:51:58.040Z,90.22
2017-11-20T07:53:25.007Z,90.02
2017-11-20T07:54:52.436Z,89.98
2017-11-20T07:56:19.636Z,89.65
2017-11-20T07:57:46.909Z,89.75
2017-11-20T07:59:14.197Z,89.88
2017-11-20T08:00:41.423Z,90.36
2017-11-20T08:02:08.763Z,90.04
2017-11-20T08:03:36.034Z,90.24
2017-11-20T08:05:03.187Z,89.92
2017-11-20T08:06:34.434Z,90.23
2017-11-20T08:08:01.756Z,90.14
2017-11-20T08:09:24.912Z,90.31
2017-11-20T08:10:52.083Z,90.36
2017-11-20T08:12:24.085Z,90.52
2017-11-20T08:13:50.734Z,90.50
2017-11-20T08:15:17.669Z,90.96
2017-11-20T08:16:41.067Z,91.33
2017-11-20T08:18:12.332Z,91.47
2017-11-20T08:19:39.688Z,91.64
2017-11-20T08:21:06.673Z,91.38
2017-11-20T08:22:29.950Z,91.29
2017-11-20T08:23:57.141Z,91.34
2017-11-20T08:25:24.223Z,91.27
2017-11-20T08:26:55.307Z,91.19
2017-11-20T08:28:22.569Z,90.93
2017-11-20T08:29:45.978Z,90.52
2017-11-20T08:31:13.291Z,90.79
2017-11-20T08:32:40.394Z,90.98
2017-11-20T08:34:11.770Z,90.72
2017-11-20T08:35:35.098Z,90.20
2017-11-20T08:37:02.353Z,90.06
2017-11-20T08:38:29.695Z,90.17
2017-11-20T08:40:00.843Z,90.03
2017-11-20T08:41:28.176Z,90.20
2017-11-20T08:42:51.492Z,90.45
2017-11-20T08:44:18.676Z,90.67
2017-11-20T08:45:45.970Z,90.45
2017-11-20T08:47:13.377Z,90.83
2017-11-20T08:48:44.577Z,90.69
2017-11-20T08:50:11.452Z,90.67
2017-11-20T08:51:38.867Z,90.37
2017-11-20T08:53:02.253Z,90.15
2017-11-20T08:54:33.460Z,90.27
2017-11-20T08:56:00.772Z,90.33
2017-11-20T08:57:27.892Z,90.41
2017-11-20T08:58:50.750Z,90.40
2017-11-20T09:00:22.090Z,90.29
2017-11-20T09:01:45.187Z,90.25
2017-11-20T09:03:16.431Z,90.25
2017-11-20T09:04:39.751Z,90.07
2017-11-20T09:06:07.053Z,90.28
2017-11-20T09:07:34.245Z,89.75
2017-11-20T09:09:01.573Z,89.54
2017-11-20T09:10:28.911Z,89.17
2017-11-20T09:11:56.175Z,89.24
2017-11-20T09:13:27.156Z,89.29
2017-11-20T09:14:50.484Z,89.11
2017-11-20T09:16:17.634Z,89.41
2017-11-20T09:17:44.926Z,88.95
2017-11-20T09:19:12.294Z,88.98
2017-11-20T09:20:43.458Z,89.05
2017-11-20T09:22:07.079Z,88.83
2017-11-20T09:23:38.232Z,89.07
2017-11-20T09:25:05.728Z,89.23
2017-11-20T09:26:29.094Z,89.25
2017-11-20T09:27:56.274Z,88.98
2017-11-20T09:29:23.588Z,88.97
2017-11-20T09:30:54.669Z,88.38
2017-11-20T09:32:17.947Z,87.90
2017-11-20T09:33:49.203Z,88.11
2017-11-20T09:35:12.402Z,87.92
2017-11-20T09:36:39.745Z,87.81
2017-11-20T09:38:06.980Z,87.97
2017-11-20T09:39:34.197Z,87.83
2017-11-20T09:41:01.403Z,87.90
2017-11-20T09:42:32.809Z,88.09
2017-11-20T09:43:59.773Z,87.89
2017-11-20T09:45:27.214Z,87.72
2017-11-20T09:46:50.274Z,87.84
2017-11-20T09:48:17.678Z,87.80
2017-11-20T09:49:44.945Z,87.38
2017-11-20T09:51:12.048Z,87.38
2017-11-20T09:52:43.164Z,87.13
2017-11-20T09:54:10.469Z,87.16
2017-11-20T09:55:33.730Z,87.17
2017-11-20T09:57:05.091Z,87.12
2017-11-20T09:58:28.258Z,87.11
2017-11-20T09:59:59.550Z,87.17
2017-11-20T10:01:22.799Z,87.01
2017-11-20T10:02:50.156Z,87.02
2017-11-20T10:04:17.548Z,86.84
2017-11-20T10:05:48.703Z,86.37
2017-11-20T10:07:12.109Z,86.51
2017-11-20T10:08:39.375Z,86.26
2017-11-20T10:10:06.543Z,85.97
2017-11-20T10:11:33.901Z,85.97
2017-11-20T10:13:01.147Z,85.48
2017-11-20T10:14:28.407Z,85.17
2017-11-20T10:15:59.370Z,85.06
2017-11-20T10:17:22.779Z,84.75
2017-11-20T10:18:49.961Z,84.78
2017-11-20T10:20:17.085Z,84.71
2017-11-20T10:21:44.535Z,84.52
2017-11-20T10:23:15.899Z,84.76
2017-11-20T10:24:39.165Z,84.21
2017-11-20T10:26:06.572Z,84.29
2017-11-20T10:27:33.868Z,83.72
2017-11-20T10:29:00.731Z,84.14
2017-11-20T10:30:27.998Z,83.85
2017-11-20T10:31:55.248Z,84.40
2017-11-20T10:33:26.330Z,83.92
2017-11-20T10:34:49.832Z,84.18
2017-11-20T10:36:17.175Z,84.31
2017-11-20T10:37:48.446Z,84.24
2017-11-20T10:39:11.776Z,83.99
2017-11-20T10:40:39.160Z,84.21
2017-11-20T10:42:06.460Z,84.41
2017-11-20T10:43:33.873Z,84.26
2017-11-20T10:45:05.078Z,84.17
2017-11-20T10:46:28.247Z,84.25
2017-11-20T10:47:59.556Z,84.22
2017-11-20T10:49:26.603Z,83.59
2017-11-20T10:50:49.955Z,83.63
2017-11-20T10:52:17.153Z,83.73
2017-11-20T10:53:44.509Z,84.46
2017-11-20T10:55:15.794Z,84.19
2017-11-20T10:56:38.987Z,84.45
2017-11-20T10:58:06.308Z,84.19
2017-11-20T10:59:33.647Z,83.96
2017-11-20T11:01:00.807Z,83.98
2017-11-20T11:02:31.946Z,83.77
2017-11-20T11:03:59.299Z,84.00
2017-11-20T11:05:26.629Z,83.94
2017-11-20T11:06:49.825Z,84.30
2017-11-20T11:08:17.177Z,84.50
2017-11-20T11:09:48.531Z,83.47
2017-11-20T11:11:11.689Z,83.72
2017-11-20T11:12:38.829Z,83.69
2017-11-20T11:14:06.176Z,83.38
2017-11-20T11:15:37.457Z,83.28
2017-11-20T11:17:00.769Z,82.97
2017-11-20T11:18:28.133Z,82.69
2017-11-20T11:19:59.268Z,83.25
2017-11-20T11:21:26.381Z,82.58
2017-11-20T11:22:49.667Z,82.59
2017-11-20T11:24:16.992Z,82.57
2017-11-20T11:25:48.183Z,82.10
2017-11-20T11:27:11.582Z,82.24
2017-11-20T11:28:38.779Z,82.61
2017-11-20T11:30:09.929Z,81.78
2017-11-20T11:31:33.287Z,81.40
2017-11-20T11:33:04.601Z,81.54
2017-11-20T11:34:27.800Z,80.92
2017-11-20T11:35:55.098Z,80.24
2017-11-20T11:37:26.197Z,81.41
2017-11-20T11:38:49.597Z,80.84
2017-11-20T11:40:16.822Z,80.19
2017-11-20T11:41:44.111Z,80.14
2017-11-20T11:43:11.360Z,80.66
2017-11-20T11:44:38.581Z,80.70
2017-11-20T11:46:05.878Z,80.95
2017-11-20T11:47:37.036Z,80.26
2017-11-20T11:49:04.362Z,80.72
2017-11-20T11:50:27.762Z,81.00
2017-11-20T11:51:55.126Z,80.47
2017-11-20T11:53:22.295Z,80.69
2017-11-20T11:54:49.569Z,79.88
2017-11-20T11:56:21.017Z,80.90
2017-11-20T11:57:44.130Z,80.66
2017-11-20T11:59:11.517Z,81.10
2017-11-20T12:00:42.863Z,81.04
2017-11-20T12:02:05.623Z,81.20
2017-11-20T12:03:37.011Z,80.90
2017-11-20T12:05:04.305Z,80.45
2017-11-20T12:06:27.468Z,80.65
2017-11-20T12:07:58.646Z,79.97
2017-11-20T12:09:21.832Z,80.57
2017-11-20T12:10:49.001Z,78.83
2017-11-20T12:12:16.267Z,79.22
2017-11-20T12:13:47.539Z,79.30
2017-11-20T12:15:10.756Z,79.11
2017-11-20T12:16:38.118Z,79.05
2017-11-20T12:18:09.474Z,78.63
2017-11-20T12:19:36.703Z,78.46
2017-11-20T12:21:00.045Z,77.61
2017-11-20T12:22:27.406Z,78.30
2017-11-20T12:23:54.623Z,78.63
2017-11-20T12:25:21.913Z,78.06
2017-11-20T12:26:53.177Z,77.93
2017-11-20T12:28:16.428Z,77.81
2017-11-20T12:29:43.803Z,77.58
2017-11-20T12:31:14.995Z,77.94
2017-11-20T12:32:38.110Z,77.82
2017-11-20T12:34:05.402Z,77.72
2017-11-20T12:35:36.761Z,78.14
2017-11-20T12:37:03.991Z,78.35
2017-11-20T12:38:31.290Z,78.66
2017-11-20T12:39:54.508Z,78.76
2017-11-20T12:41:21.571Z,78.86
2017-11-20T12:42:48.845Z,79.09
2017-11-20T12:44:16.079Z,79.56
2017-11-20T12:45:43.278Z,80.25
2017-11-20T12:47:10.510Z,80.04
2017-11-20T12:48:37.828Z,79.65
2017-11-20T12:50:05.142Z,80.23
2017-11-20T12:51:32.404Z,80.18
2017-11-20T12:52:59.689Z,80.18
2017-11-20T12:54:30.993Z,80.39
2017-11-20T12:55:54.204Z,80.86
2017-11-20T12:57:21.357Z,80.91
2017-11-20T12:58:48.540Z,81.02
2017-11-20T13:00:15.674Z,81.53
2017-11-20T13:01:42.978Z,81.23
2017-11-20T13:03:14.376Z,82.01
2017-11-20T13:04:37.643Z,81.57
2017-11-20T13:06:04.893Z,81.99
2017-11-20T13:07:32.400Z,81.70
2017-11-20T13:08:59.585Z,81.67
2017-11-20T13:10:26.916Z,81.65
2017-11-20T13:11:54.097Z,82.03
2017-11-20T13:13:21.171Z,81.58
2017-11-20T13:14:48.462Z,81.48
2017-11-20T13:16:15.899Z,81.95
2017-11-20T13:17:43.104Z,82.11
2017-11-20T13:19:10.201Z,81.87
2017-11-20T13:20:41.451Z,82.25
2017-11-20T13:22:04.770Z,82.97
2017-11-20T13:23:32.126Z,82.58
2017-11-20T13:24:59.471Z,82.74
2017-11-20T13:26:26.686Z,82.90
2017-11-20T13:27:53.798Z,83.00
2017-11-20T13:29:20.904Z,82.46
2017-11-20T13:30:48.148Z,82.13
2017-11-20T13:32:15.247Z,82.34
2017-11-20T13:33:42.551Z,82.64
2017-11-20T13:35:13.823Z,82.58
2017-11-20T13:36:37.346Z,82.81
2017-11-20T13:38:04.641Z,82.91
2017-11-20T13:39:31.907Z,82.74
2017-11-20T13:40:59.249Z,82.74
2017-11-20T13:42:26.409Z,83.00
2017-11-20T13:43:53.593Z,82.71
2017-11-20T13:45:24.741Z,82.34
2017-11-20T13:46:47.913Z,82.79
2017-11-20T13:48:19.239Z,82.94
2017-11-20T13:49:42.471Z,83.20
2017-11-20T13:51:09.888Z,83.25
2017-11-20T13:52:37.229Z,82.39
2017-11-20T13:54:04.391Z,82.56
2017-11-20T13:55:31.788Z,82.68
2017-11-20T13:57:03.010Z,82.83
2017-11-20T13:58:26.265Z,83.00
2017-11-20T13:59:57.529Z,83.07
2017-11-20T14:01:20.518Z,83.32
2017-11-20T14:02:47.638Z,83.11
2017-11-20T14:04:15.070Z,83.40
2017-11-20T14:05:46.491Z,83.80
2017-11-20T14:07:09.882Z,83.79
2017-11-20T14:08:36.881Z,84.09
2017-11-20T14:10:04.260Z,83.55
2017-11-20T14:11:35.511Z,83.83
2017-11-20T14:12:58.862Z,83.88
2017-11-20T14:14:26.211Z,83.89
2017-11-20T14:15:53.466Z,83.90
2017-11-20T14:17:20.769Z,83.80
2017-11-20T14:18:48.091Z,83.84
2017-11-20T14:20:15.283Z,84.11
2017-11-20T14:21:42.659Z,84.09
2017-11-20T14:23:09.914Z,84.41
2017-11-20T14:24:41.288Z,84.30
2017-11-20T14:26:04.561Z,84.32
2017-11-20T14:27:31.778Z,84.35
2017-11-20T14:29:03.215Z,84.68
2017-11-20T14:30:26.302Z,84.45
2017-11-20T14:31:53.479Z,84.51
2017-11-20T14:33:20.618Z,84.66
2017-11-20T14:34:47.999Z,84.83
2017-11-20T14:36:19.272Z,84.81
2017-11-20T14:37:42.435Z,84.83
2017-11-20T14:39:13.873Z,84.66
2017-11-20T14:40:37.301Z,84.56
2017-11-20T14:42:04.392Z,84.26
2017-11-20T14:43:31.537Z,84.08
2017-11-20T14:44:58.762Z,83.97
2017-11-20T14:46:25.986Z,83.91
2017-11-20T14:47:53.274Z,83.73
2017-11-20T14:49:20.315Z,83.52
2017-11-20T14:50:47.704Z,83.59
2017-11-20T14:52:14.964Z,84.10
2017-11-20T14:53:42.159Z,84.55
2017-11-20T14:55:09.378Z,84.53
2017-11-20T14:56:36.602Z,84.67
2017-11-20T14:58:03.952Z,84.87
2017-11-20T14:59:35.046Z,85.06
2017-11-20T15:00:58.209Z,85.11
2017-11-20T15:02:25.638Z,84.87
2017-11-20T15:03:52.745Z,84.98
2017-11-20T15:05:20.137Z,84.69
2017-11-20T15:06:47.401Z,84.67
2017-11-20T15:08:18.730Z,85.08
2017-11-20T15:09:42.106Z,85.28
2017-11-20T15:11:09.313Z,85.20
2017-11-20T15:12:40.383Z,85.43
2017-11-20T15:14:03.667Z,85.44
2017-11-20T15:15:30.792Z,85.22
2017-11-20T15:16:58.069Z,84.95
2017-11-20T15:18:25.118Z,85.49
2017-11-20T15:19:56.228Z,85.85
2017-11-20T15:21:19.670Z,85.79
2017-11-20T15:22:47.006Z,85.67
2017-11-20T15:24:14.374Z,85.89
2017-11-20T15:25:41.715Z,85.65
2017-11-20T15:27:08.979Z,86.11
2017-11-20T15:28:36.170Z,86.13
2017-11-20T15:30:07.283Z,86.53
2017-11-20T15:31:30.503Z,86.45
2017-11-20T15:32:57.864Z,86.78
2017-11-20T15:34:25.188Z,86.44
2017-11-20T15:35:56.334Z,86.67
2017-11-20T15:37:23.486Z,86.57
2017-11-20T15:38:46.817Z,86.90
2017-11-20T15:40:13.961Z,86.81
2017-11-20T15:41:45.207Z,86.46
2017-11-20T15:43:08.399Z,86.68
2017-11-20T15:44:35.522Z,86.81
2017-11-20T15:46:07.058Z,86.70
2017-11-20T15:47:30.325Z,86.47
2017-11-20T15:49:01.570Z,86.54
2017-11-20T15:50:28.704Z,86.41
2017-11-20T15:51:52.104Z,86.25
2017-11-20T15:53:19.180Z,86.41
2017-11-20T15:54:46.469Z,86.17
2017-11-20T15:56:17.594Z,86.15
2017-11-20T15:57:40.846Z,86.18
2017-11-20T15:59:08.005Z,86.33
2017-11-20T16:00:35.241Z,85.91
2017-11-20T16:02:06.275Z,86.14
2017-11-20T16:03:33.685Z,86.35
2017-11-20T16:04:56.621Z,86.56
2017-11-20T16:06:27.899Z,86.15
2017-11-20T16:07:51.158Z,86.53
2017-11-20T16:09:18.461Z,86.81
2017-11-20T16:10:45.667Z,86.78
2017-11-20T16:12:12.977Z,87.00
2017-11-20T16:13:44.178Z,87.17
2017-11-20T16:15:07.420Z,87.22
2017-11-20T16:16:34.632Z,87.56
2017-11-20T16:18:06.015Z,87.74
2017-11-20T16:19:29.084Z,87.74
2017-11-20T16:20:56.355Z,87.74
2017-11-20T16:22:27.693Z,87.91
2017-11-20T16:23:51.030Z,88.14
2017-11-20T16:25:18.373Z,88.15
2017-11-20T16:26:45.633Z,88.17
2017-11-20T16:28:12.770Z,88.46
2017-11-20T16:29:40.035Z,88.36
2017-11-20T16:31:07.306Z,88.30
2017-11-20T16:32:34.344Z,88.28
2017-11-20T16:34:01.407Z,88.00
2017-11-20T16:35:28.745Z,88.05
2017-11-20T16:36:59.916Z,88.21
2017-11-20T16:38:27.102Z,88.05
2017-11-20T16:39:50.204Z,87.93
2017-11-20T16:41:17.552Z,87.81
2017-11-20T16:42:44.865Z,87.79
2017-11-20T16:44:16.239Z,87.73
2017-11-20T16:45:43.262Z,87.69
2017-11-20T16:47:06.627Z,87.53
2017-11-20T16:48:33.758Z,87.44
2017-11-20T16:50:04.970Z,87.63
2017-11-20T16:51:28.000Z,87.21
2017-11-20T16:52:59.176Z,87.41
2017-11-20T16:54:22.350Z,87.63
2017-11-20T16:55:49.589Z,87.52
2017-11-20T16:57:16.816Z,87.46
2017-11-20T16:58:44.061Z,87.20
2017-11-20T17:00:15.282Z,87.23
2017-11-20T17:01:38.658Z,87.13
2017-11-20T17:03:05.958Z,86.96
2017-11-20T17:04:33.253Z,86.99
2017-11-20T17:06:04.344Z,86.86
2017-11-20T17:07:27.574Z,86.75
2017-11-20T17:08:54.667Z,86.59
2017-11-20T17:10:21.885Z,86.42
2017-11-20T17:11:48.925Z,86.32
2017-11-20T17:13:16.148Z,86.32
2017-11-20T17:14:43.544Z,86.19
2017-11-20T17:16:10.484Z,86.20
2017-11-20T17:17:37.808Z,86.09
2017-11-20T17:19:05.228Z,85.98
2017-11-20T17:20:32.445Z,85.82
2017-11-20T17:22:03.522Z,85.73
2017-11-20T17:23:26.831Z,85.61
2017-11-20T17:24:54.001Z,85.43
2017-11-20T17:26:21.171Z,85.31
2017-11-20T17:27:48.398Z,85.13
2017-11-20T17:29:19.639Z,85.24
2017-11-20T17:30:43.065Z,85.17
2017-11-20T17:32:14.180Z,85.24
2017-11-20T17:33:37.571Z,85.11
2017-11-20T17:35:04.742Z,85.14
2017-11-20T17:36:32.001Z,85.16
2017-11-20T17:37:59.473Z,85.15
2017-11-20T17:39:30.565Z,85.15
2017-11-20T17:40:57.606Z,85.31
2017-11-20T17:42:20.939Z,85.24
2017-11-20T17:43:48.272Z,85.31
2017-11-20T17:45:15.524Z,85.30
2017-11-20T17:46:42.814Z,85.44
2017-11-20T17:48:09.911Z,85.44
2017-11-20T17:49:41.035Z,85.49
2017-11-20T17:51:08.391Z,85.48
2017-11-20T17:52:35.648Z,85.29
2017-11-20T17:53:58.942Z,85.02
2017-11-20T17:55:30.014Z,84.93
2017-11-20T17:56:53.291Z,85.02
2017-11-20T17:58:20.577Z,85.22
2017-11-20T17:59:51.757Z,85.37
2017-11-20T18:01:15.058Z,85.44
2017-11-20T18:02:46.305Z,85.65
2017-11-20T18:04:09.527Z,85.73
2017-11-20T18:05:40.680Z,85.74
2017-11-20T18:07:03.830Z,85.88
2017-11-20T18:08:31.162Z,85.84
2017-11-20T18:09:58.129Z,85.72
2017-11-20T18:11:25.398Z,85.73
2017-11-20T18:12:52.379Z,85.53
2017-11-20T18:14:19.781Z,85.31
2017-11-20T18:15:47.126Z,85.16
2017-11-20T18:17:14.223Z,84.73
2017-11-20T18:18:45.434Z,84.19
2017-11-20T18:20:08.971Z,84.15
2017-11-20T18:21:40.184Z,84.12
2017-11-20T18:23:07.236Z,84.43
2017-11-20T18:24:30.602Z,84.72
2017-11-20T18:25:57.761Z,85.10
2017-11-20T18:27:24.813Z,85.36
2017-11-20T18:28:55.817Z,85.42
2017-11-20T18:30:23.022Z,85.86
2017-11-20T18:31:46.427Z,85.96
2017-11-20T18:33:17.553Z,86.02
2017-11-20T18:34:40.916Z,86.01
2017-11-20T18:36:08.004Z,86.11
2017-11-20T18:37:39.168Z,86.10
2017-11-20T18:39:02.355Z,86.10
2017-11-20T18:40:29.629Z,86.19
2017-11-20T18:41:56.773Z,86.04
2017-11-20T18:43:23.889Z,86.06